createdAt,value
2019-05-25T00:01:37.972Z,89.40
2019-05-25T00:04:09.813Z,90.69
2019-05-25T00:06:41.562Z,90.13
2019-05-25T00:09:13.306Z,90.17
2019-05-25T00:11:46.820Z,90.33
2019-05-25T00:14:19.240Z,91.20
2019-05-25T00:16:51.086Z,90.74
2019-05-25T00:19:22.827Z,91.18
2019-05-25T00:21:54.570Z,91.15
2019-05-25T00:24:26.307Z,91.01
2019-05-25T00:26:58.049Z,90.86
2019-05-25T00:29:29.794Z,91.20
2019-05-25T00:32:01.608Z,90.97
2019-05-25T00:34:33.318Z,91.36
2019-05-25T00:37:05.434Z,90.77
2019-05-25T00:39:37.143Z,90.43
2019-05-25T00:42:08.883Z,90.74
2019-05-25T00:44:40.731Z,90.67
2019-05-25T00:47:12.474Z,90.71
2019-05-25T00:49:44.213Z,91.00
2019-05-25T00:52:15.953Z,91.08
2019-05-25T00:54:49.332Z,90.94
2019-05-25T00:57:20.977Z,90.26
2019-05-25T00:59:52.950Z,91.02
2019-05-25T01:02:24.792Z,90.90
2019-05-25T01:04:56.643Z,90.94
2019-05-25T01:07:28.387Z,91.22
2019-05-25T01:10:00.134Z,90.94
2019-05-25T01:12:31.863Z,90.58
2019-05-25T01:15:06.610Z,91.03
2019-05-25T01:17:39.875Z,91.03
2019-05-25T01:20:14.357Z,90.75
2019-05-25T01:22:47.607Z,90.61
2019-05-25T01:25:19.519Z,90.67
2019-05-25T01:27:52.247Z,91.00
2019-05-25T01:30:24.323Z,90.81
2019-05-25T01:32:55.869Z,91.42
2019-05-25T01:35:28.846Z,90.91
2019-05-25T01:38:02.094Z,90.33
2019-05-25T01:40:34.136Z,90.82
2019-05-25T01:43:07.124Z,91.77
2019-05-25T01:45:38.866Z,92.30
2019-05-25T01:48:11.853Z,91.81
2019-05-25T01:50:43.589Z,92.21
2019-05-25T01:53:16.570Z,91.92
2019-05-25T01:55:49.545Z,91.97
2019-05-25T01:58:21.394Z,92.11
2019-05-25T02:00:53.133Z,92.68
2019-05-25T02:03:25.059Z,92.80
2019-05-25T02:05:56.909Z,92.26
2019-05-25T02:08:28.668Z,92.20
2019-05-25T02:11:00.401Z,92.11
2019-05-25T02:13:32.248Z,93.07
2019-05-25T02:16:04.105Z,92.65
2019-05-25T02:18:36.018Z,93.13
2019-05-25T02:21:07.811Z,92.90
2019-05-25T02:23:39.586Z,92.74
2019-05-25T02:26:11.330Z,92.32
2019-05-25T02:28:43.365Z,92.37
2019-05-25T02:31:15.111Z,92.12
2019-05-25T02:33:46.856Z,91.61
2019-05-25T02:36:20.842Z,91.62
2019-05-25T02:38:53.737Z,91.62
2019-05-25T02:41:26.155Z,91.36
2019-05-25T02:43:57.896Z,91.54
2019-05-25T02:46:30.016Z,91.59
2019-05-25T02:49:01.758Z,91.17
2019-05-25T02:51:33.507Z,90.94
2019-05-25T02:54:05.504Z,91.25
2019-05-25T02:56:38.217Z,90.96
2019-05-25T02:59:09.951Z,91.39
2019-05-25T03:01:41.805Z,91.45
2019-05-25T03:04:15.007Z,91.11
2019-05-25T03:06:47.119Z,90.65
2019-05-25T03:09:21.535Z,90.42
2019-05-25T03:11:54.009Z,90.38
2019-05-25T03:14:25.747Z,89.55
2019-05-25T03:16:58.457Z,89.74
2019-05-25T03:19:30.190Z,88.68
2019-05-25T03:22:01.933Z,88.73
2019-05-25T03:24:33.781Z,88.22
2019-05-25T03:27:06.386Z,87.10
2019-05-25T03:29:38.121Z,86.82
2019-05-25T03:32:10.012Z,86.58
2019-05-25T03:34:41.999Z,86.14
2019-05-25T03:37:13.713Z,87.02
2019-05-25T03:39:45.556Z,87.00
2019-05-25T03:42:17.350Z,86.10
2019-05-25T03:44:49.665Z,86.44
2019-05-25T03:47:21.409Z,86.18
2019-05-25T03:49:53.605Z,84.91
2019-05-25T03:52:25.608Z,85.23
2019-05-25T03:54:57.250Z,82.67
2019-05-25T03:57:29.086Z,82.21
2019-05-25T04:00:00.829Z,81.33
2019-05-25T04:02:32.562Z,80.49
2019-05-25T04:05:05.734Z,76.98
2019-05-25T04:07:37.368Z,73.95
2019-05-25T04:10:09.782Z,71.12
2019-05-25T04:12:41.429Z,67.86
2019-05-25T04:15:13.340Z,65.97
2019-05-25T04:17:46.900Z,64.56
2019-05-25T04:20:18.613Z,63.63
2019-05-25T04:22:50.647Z,61.64
2019-05-25T04:25:23.665Z,59.96
2019-05-25T04:27:55.396Z,58.32
2019-05-25T04:30:27.222Z,54.55
2019-05-25T04:32:58.842Z,52.98
2019-05-25T04:35:30.686Z,52.55
2019-05-25T04:38:02.737Z,48.58
2019-05-25T04:40:34.500Z,44.12
2019-05-25T04:43:06.840Z,42.48
2019-05-25T04:45:38.584Z,46.57
2019-05-25T04:48:10.326Z,49.50
2019-05-25T04:50:43.029Z,51.02
2019-05-25T04:53:14.834Z,52.76
2019-05-25T04:55:46.877Z,52.73
2019-05-25T04:58:18.626Z,50.66
2019-05-25T05:00:50.360Z,47.68
2019-05-25T05:03:22.114Z,46.93
2019-05-25T05:05:53.936Z,45.83
2019-05-25T05:08:25.690Z,43.70
2019-05-25T05:10:57.428Z,42.88
2019-05-25T05:13:29.466Z,42.39
2019-05-25T05:16:01.313Z,42.01
2019-05-25T05:18:33.065Z,42.75
2019-05-25T05:21:04.822Z,44.47
2019-05-25T05:23:36.565Z,48.38
2019-05-25T05:26:08.635Z,51.92
2019-05-25T05:28:40.380Z,54.34
2019-05-25T05:31:23.277Z,55.23
2019-05-25T05:33:45.687Z,54.48
2019-05-25T05:36:19.260Z,54.86
2019-05-25T05:38:52.241Z,50.75
2019-05-25T05:41:25.208Z,47.96
2019-05-25T05:44:00.633Z,45.41
2019-05-25T05:46:35.430Z,46.44
2019-05-25T05:49:10.481Z,47.47
2019-05-25T05:51:44.104Z,49.57
2019-05-25T05:54:17.872Z,50.78
2019-05-25T05:56:50.259Z,52.82
2019-05-25T05:59:21.895Z,51.90
2019-05-25T06:01:53.830Z,48.41
2019-05-25T06:04:25.566Z,47.10
2019-05-25T06:06:57.292Z,45.49
2019-05-25T06:09:29.160Z,47.26
2019-05-25T06:12:00.784Z,46.33
2019-05-25T06:14:32.632Z,44.18
2019-05-25T06:17:04.547Z,44.23
2019-05-25T06:19:40.742Z,43.84
2019-05-25T06:22:15.686Z,43.77
2019-05-25T06:24:47.329Z,43.42
2019-05-25T06:27:27.338Z,43.74
2019-05-25T06:29:52.650Z,42.69
2019-05-25T06:32:24.390Z,42.48
2019-05-25T06:34:56.211Z,43.56
2019-05-25T06:37:28.361Z,43.84
2019-05-25T06:40:02.614Z,43.31
2019-05-25T06:42:39.438Z,42.28
2019-05-25T06:45:13.488Z,41.62
2019-05-25T06:47:45.619Z,41.51
2019-05-25T06:50:20.790Z,41.15
2019-05-25T06:52:52.639Z,42.60
2019-05-25T06:55:24.366Z,41.54
2019-05-25T06:57:56.095Z,40.65
2019-05-25T07:00:28.003Z,42.08
2019-05-25T07:03:00.103Z,43.08
2019-05-25T07:05:32.925Z,44.68
2019-05-25T07:08:05.031Z,44.10
2019-05-25T07:10:36.768Z,41.52
2019-05-25T07:13:08.502Z,39.31
2019-05-25T07:15:40.230Z,39.02
2019-05-25T07:18:12.060Z,39.55
2019-05-25T07:20:43.785Z,38.36
2019-05-25T07:23:15.514Z,39.06
2019-05-25T07:25:47.347Z,37.56
2019-05-25T07:28:19.078Z,37.14
2019-05-25T07:30:50.821Z,37.14
2019-05-25T07:33:22.562Z,37.07
2019-05-25T07:35:54.296Z,38.38
2019-05-25T07:38:26.259Z,40.05
2019-05-25T07:40:57.891Z,40.05
2019-05-25T07:43:29.640Z,38.75
2019-05-25T07:46:01.370Z,39.51
2019-05-25T07:48:33.173Z,41.41
2019-05-25T07:51:04.932Z,40.71
2019-05-25T07:53:37.528Z,41.55
2019-05-25T07:56:09.370Z,41.79
2019-05-25T07:58:41.062Z,41.44
2019-05-25T08:01:13.168Z,41.44
2019-05-25T08:03:47.079Z,40.37
2019-05-25T08:06:18.803Z,41.00
2019-05-25T08:08:51.786Z,41.18
2019-05-25T08:11:23.538Z,41.46
2019-05-25T08:13:55.368Z,40.15
2019-05-25T08:16:27.114Z,43.38
2019-05-25T08:18:58.847Z,41.81
2019-05-25T08:21:30.609Z,41.12
2019-05-25T08:24:02.338Z,41.39
2019-05-25T08:26:34.082Z,43.62
2019-05-25T08:29:05.923Z,43.99
2019-05-25T08:31:37.677Z,44.36
2019-05-25T08:34:09.428Z,44.43
2019-05-25T08:36:44.919Z,44.92
2019-05-25T08:39:16.847Z,44.87
2019-05-25T08:41:51.016Z,44.54
2019-05-25T08:44:22.843Z,43.85
2019-05-25T08:46:55.744Z,43.75
2019-05-25T08:49:27.668Z,44.44
2019-05-25T08:51:59.738Z,43.55
2019-05-25T08:54:31.480Z,42.94
2019-05-25T08:57:04.896Z,42.70
2019-05-25T08:59:36.530Z,42.75
2019-05-25T09:02:08.269Z,42.79
2019-05-25T09:04:40.016Z,43.29
2019-05-25T09:07:11.749Z,44.64
2019-05-25T09:09:43.624Z,45.29
2019-05-25T09:12:15.389Z,45.75
2019-05-25T09:14:48.812Z,44.26
2019-05-25T09:17:20.678Z,45.13
2019-05-25T09:19:52.428Z,45.60
2019-05-25T09:22:24.176Z,45.74
2019-05-25T09:24:55.915Z,44.42
2019-05-25T09:27:27.698Z,45.23
2019-05-25T09:30:01.127Z,43.85
2019-05-25T09:32:32.783Z,43.05
2019-05-25T09:35:07.167Z,42.63
2019-05-25T09:37:39.013Z,42.18
2019-05-25T09:40:11.561Z,42.79
2019-05-25T09:42:44.628Z,43.05
2019-05-25T09:45:16.872Z,42.96
2019-05-25T09:47:48.508Z,45.75
2019-05-25T09:50:20.308Z,43.93
2019-05-25T09:52:52.036Z,44.05
2019-05-25T09:55:23.767Z,43.77
2019-05-25T09:57:55.494Z,44.83
2019-05-25T10:00:27.776Z,44.41
2019-05-25T10:02:59.416Z,44.78
2019-05-25T10:05:31.164Z,45.14
2019-05-25T10:08:04.185Z,46.39
2019-05-25T10:10:36.074Z,44.57
2019-05-25T10:13:07.898Z,44.03
2019-05-25T10:15:40.938Z,45.36
2019-05-25T10:18:12.673Z,43.73
2019-05-25T10:20:45.534Z,43.61
2019-05-25T10:23:17.259Z,44.12
2019-05-25T10:25:48.885Z,44.29
2019-05-25T10:28:20.916Z,43.76
2019-05-25T10:30:52.792Z,42.35
2019-05-25T10:33:25.998Z,42.69
2019-05-25T10:35:57.724Z,41.91
2019-05-25T10:38:29.558Z,42.19
2019-05-25T10:41:01.285Z,42.27
2019-05-25T10:43:36.945Z,42.78
2019-05-25T10:46:08.780Z,42.74
2019-05-25T10:48:40.538Z,41.92
2019-05-25T10:51:12.342Z,43.64
2019-05-25T10:53:44.415Z,42.94
2019-05-25T10:56:16.144Z,43.63
2019-05-25T10:58:48.086Z,42.39
2019-05-25T11:01:19.621Z,41.80
2019-05-25T11:03:52.954Z,41.08
2019-05-25T11:06:24.697Z,41.00
2019-05-25T11:08:56.238Z,40.63
2019-05-25T11:11:27.861Z,41.66
2019-05-25T11:13:59.391Z,41.91
2019-05-25T11:16:32.393Z,44.09
2019-05-25T11:19:04.123Z,41.32
2019-05-25T11:21:35.850Z,42.86
2019-05-25T11:24:07.585Z,40.98
2019-05-25T11:26:40.803Z,40.03
2019-05-25T11:29:13.877Z,42.19
2019-05-25T11:31:54.631Z,39.65
2019-05-25T11:34:18.643Z,40.40
2019-05-25T11:36:50.382Z,41.33
2019-05-25T11:39:22.511Z,41.38
2019-05-25T11:41:54.034Z,43.75
2019-05-25T11:44:26.966Z,43.22
2019-05-25T11:46:59.618Z,43.32
2019-05-25T11:49:31.364Z,43.31
2019-05-25T11:52:03.099Z,44.77
2019-05-25T11:54:34.829Z,42.88
2019-05-25T11:57:07.430Z,41.78
2019-05-25T11:59:39.359Z,42.76
2019-05-25T12:02:11.087Z,42.35
2019-05-25T12:04:43.631Z,42.12
2019-05-25T12:07:15.466Z,43.41
2019-05-25T12:09:47.290Z,43.95
2019-05-25T12:12:19.025Z,44.95
2019-05-25T12:14:50.767Z,44.40
2019-05-25T12:17:22.633Z,42.61
2019-05-25T12:19:54.273Z,43.53
2019-05-25T12:22:26.131Z,42.92
2019-05-25T12:24:57.650Z,42.98
2019-05-25T12:27:29.278Z,42.10
2019-05-25T12:30:02.695Z,42.55
2019-05-25T12:32:34.605Z,42.11
2019-05-25T12:35:08.420Z,40.65
2019-05-25T12:37:40.247Z,41.56
2019-05-25T12:40:12.645Z,41.72
2019-05-25T12:42:45.902Z,42.90
2019-05-25T12:45:18.380Z,42.80
2019-05-25T12:47:49.943Z,43.07
2019-05-25T12:50:22.609Z,43.32
2019-05-25T12:52:54.150Z,43.75
2019-05-25T12:55:26.033Z,42.74
2019-05-25T12:57:57.751Z,41.06
2019-05-25T13:00:29.488Z,41.63
2019-05-25T13:03:01.249Z,40.78
2019-05-25T13:05:34.738Z,40.93
2019-05-25T13:08:08.157Z,40.92
2019-05-25T13:10:39.903Z,40.44
2019-05-25T13:13:11.664Z,41.05
2019-05-25T13:15:43.433Z,41.57
2019-05-25T13:18:15.161Z,41.86
2019-05-25T13:20:47.032Z,41.08
2019-05-25T13:23:18.787Z,42.27
2019-05-25T13:25:50.529Z,42.53
2019-05-25T13:28:22.257Z,42.14
2019-05-25T13:30:53.998Z,42.56
2019-05-25T13:33:26.867Z,41.77
2019-05-25T13:35:58.715Z,41.29
2019-05-25T13:38:30.447Z,43.58
2019-05-25T13:41:02.302Z,44.40
2019-05-25T13:43:34.048Z,43.83
2019-05-25T13:46:06.666Z,42.95
2019-05-25T13:48:38.410Z,42.53
2019-05-25T13:51:10.284Z,42.47
2019-05-25T13:53:41.908Z,41.93
2019-05-25T13:56:13.760Z,41.26
2019-05-25T13:58:45.480Z,42.00
2019-05-25T14:01:27.919Z,42.19
2019-05-25T14:03:50.571Z,42.05
2019-05-25T14:06:22.329Z,42.74
2019-05-25T14:08:54.071Z,43.07
2019-05-25T14:11:25.805Z,42.92
2019-05-25T14:13:57.543Z,43.50
2019-05-25T14:16:29.292Z,41.27
2019-05-25T14:19:01.121Z,41.57
2019-05-25T14:21:34.513Z,42.00
2019-05-25T14:24:06.537Z,42.53
2019-05-25T14:26:38.478Z,41.09
2019-05-25T14:29:10.303Z,43.26
2019-05-25T14:31:45.852Z,41.76
2019-05-25T14:34:15.591Z,43.35
2019-05-25T14:36:47.449Z,41.96
2019-05-25T14:39:20.498Z,43.33
2019-05-25T14:41:54.060Z,43.27
2019-05-25T14:44:25.687Z,43.87
2019-05-25T14:46:58.397Z,44.17
2019-05-25T14:49:30.138Z,44.85
2019-05-25T14:52:02.014Z,45.04
2019-05-25T14:54:33.683Z,44.44
2019-05-25T14:57:05.909Z,44.10
2019-05-25T14:59:37.765Z,43.31
2019-05-25T15:02:10.471Z,44.63
2019-05-25T15:04:42.308Z,45.83
2019-05-25T15:07:14.089Z,45.03
2019-05-25T15:09:45.782Z,44.70
2019-05-25T15:12:17.595Z,45.06
2019-05-25T15:14:49.612Z,45.14
2019-05-25T15:17:21.348Z,45.52
2019-05-25T15:19:53.239Z,44.93
2019-05-25T15:22:25.987Z,45.30
2019-05-25T15:24:57.845Z,45.90
2019-05-25T15:27:31.075Z,45.90
2019-05-25T15:30:03.211Z,45.92
2019-05-25T15:32:34.937Z,46.11
2019-05-25T15:35:08.134Z,46.14
2019-05-25T15:37:39.758Z,45.69
2019-05-25T15:40:13.062Z,46.19
2019-05-25T15:42:45.102Z,46.97
2019-05-25T15:45:20.695Z,47.62
2019-05-25T15:47:53.681Z,47.14
2019-05-25T15:50:25.938Z,48.13
2019-05-25T15:52:57.481Z,47.45
2019-05-25T15:55:29.905Z,46.85
2019-05-25T15:58:01.778Z,46.46
2019-05-25T16:00:51.830Z,47.74
2019-05-25T16:03:23.826Z,45.90
2019-05-25T16:05:55.868Z,47.63
2019-05-25T16:08:27.566Z,47.98
2019-05-25T16:10:59.364Z,48.25
2019-05-25T16:13:31.118Z,49.48
2019-05-25T16:16:02.896Z,48.94
2019-05-25T16:18:34.628Z,50.16
2019-05-25T16:21:06.492Z,50.50
2019-05-25T16:23:38.126Z,50.97
2019-05-25T16:26:09.888Z,51.56
2019-05-25T16:28:41.625Z,50.81
2019-05-25T16:31:13.370Z,51.83
2019-05-25T16:33:45.128Z,52.15
2019-05-25T16:36:16.897Z,52.25
2019-05-25T16:38:48.689Z,52.97
2019-05-25T16:41:20.415Z,53.28
2019-05-25T16:43:52.190Z,53.27
2019-05-25T16:46:24.003Z,53.65
2019-05-25T16:48:56.631Z,54.52
2019-05-25T16:51:28.429Z,54.51
2019-05-25T16:54:00.200Z,55.05
2019-05-25T16:56:32.091Z,54.32
2019-05-25T16:59:03.987Z,54.34
2019-05-25T17:01:47.553Z,54.56
2019-05-25T17:04:09.326Z,53.93
2019-05-25T17:06:41.095Z,54.17
2019-05-25T17:09:12.897Z,54.33
2019-05-25T17:11:44.652Z,53.46
2019-05-25T17:14:16.576Z,53.50
2019-05-25T17:16:48.501Z,52.61
2019-05-25T17:19:20.527Z,52.59
2019-05-25T17:21:52.686Z,51.91
2019-05-25T17:24:24.513Z,51.45
2019-05-25T17:26:56.378Z,50.75
2019-05-25T17:29:29.156Z,50.40
2019-05-25T17:32:00.810Z,50.20
2019-05-25T17:34:32.759Z,50.89
2019-05-25T17:37:05.120Z,51.07
2019-05-25T17:39:37.108Z,51.23
2019-05-25T17:42:10.677Z,51.56
2019-05-25T17:44:42.492Z,52.22
2019-05-25T17:47:14.180Z,52.76
2019-05-25T17:49:46.826Z,52.12
2019-05-25T17:52:22.582Z,51.94
2019-05-25T17:54:53.721Z,52.03
2019-05-25T17:57:25.555Z,52.71
2019-05-25T17:59:59.461Z,53.12
2019-05-25T18:02:30.566Z,53.56
2019-05-25T18:05:02.359Z,54.26
2019-05-25T18:07:35.141Z,54.27
2019-05-25T18:10:08.803Z,55.57
2019-05-25T18:12:40.431Z,54.71
2019-05-25T18:15:14.878Z,55.05
2019-05-25T18:18:11.399Z,55.71
2019-05-25T18:20:44.038Z,56.69
2019-05-25T18:23:20.877Z,56.02
2019-05-25T18:25:58.034Z,57.12
2019-05-25T18:28:30.562Z,57.45
2019-05-25T18:31:02.309Z,57.67
2019-05-25T18:33:34.036Z,57.82
2019-05-25T18:36:05.827Z,59.05
2019-05-25T18:38:39.823Z,58.98
2019-05-25T18:41:13.538Z,58.94
2019-05-25T18:43:47.329Z,59.26
2019-05-25T18:46:21.179Z,60.11
2019-05-25T18:48:54.185Z,60.15
2019-05-25T18:51:25.860Z,60.26
2019-05-25T18:53:57.645Z,60.76
2019-05-25T18:56:29.406Z,61.09
2019-05-25T18:59:10.500Z,61.52
2019-05-25T19:01:44.820Z,62.31
2019-05-25T19:04:19.925Z,62.37
2019-05-25T19:06:55.019Z,63.32
2019-05-25T19:09:28.253Z,62.55
2019-05-25T19:11:59.950Z,63.02
2019-05-25T19:14:34.648Z,63.17
2019-05-25T19:17:19.362Z,63.61
2019-05-25T19:19:49.732Z,63.51
2019-05-25T19:22:26.480Z,62.69
2019-05-25T19:24:59.506Z,62.51
2019-05-25T19:27:36.970Z,63.59
2019-05-25T19:30:18.433Z,63.95
2019-05-25T19:32:50.771Z,63.50
2019-05-25T19:35:22.639Z,64.03
2019-05-25T19:37:55.463Z,64.15
2019-05-25T19:40:27.444Z,64.31
2019-05-25T19:42:59.551Z,64.81
2019-05-25T19:45:35.331Z,64.65
2019-05-25T19:48:07.423Z,65.29
2019-05-25T19:50:39.268Z,65.24
2019-05-25T19:53:17.189Z,66.12
2019-05-25T19:55:49.205Z,66.09
2019-05-25T19:58:25.256Z,66.58
2019-05-25T20:01:01.004Z,66.46
2019-05-25T20:03:35.468Z,67.03
2019-05-25T20:06:09.492Z,67.39
2019-05-25T20:08:44.561Z,67.91
2019-05-25T20:11:18.017Z,67.93
2019-05-25T20:13:49.858Z,68.22
2019-05-25T20:16:24.848Z,68.90
2019-05-25T20:18:57.606Z,68.49
2019-05-25T20:21:31.581Z,68.27
2019-05-25T20:24:06.818Z,68.83
2019-05-25T20:26:40.251Z,69.51
2019-05-25T20:29:15.316Z,68.94
2019-05-25T20:31:47.070Z,69.73
2019-05-25T20:34:20.551Z,69.68
2019-05-25T20:36:52.811Z,69.66
2019-05-25T20:39:29.014Z,69.67
2019-05-25T20:42:00.600Z,70.10
2019-05-25T20:44:36.012Z,70.30
2019-05-25T20:47:07.790Z,70.81
2019-05-25T20:49:41.591Z,71.55
2019-05-25T20:52:25.869Z,71.26
2019-05-25T20:54:59.821Z,73.50
2019-05-25T20:57:35.348Z,72.37
2019-05-25T21:00:07.802Z,73.75
2019-05-25T21:03:04.743Z,73.27
2019-05-25T21:05:25.170Z,73.57
2019-05-25T21:07:59.814Z,75.17
2019-05-25T21:10:35.772Z,75.32
2019-05-25T21:13:10.685Z,76.17
2019-05-25T21:15:52.194Z,75.38
2019-05-25T21:18:34.225Z,76.07
2019-05-25T21:21:06.020Z,77.27
2019-05-25T21:23:42.601Z,77.54
2019-05-25T21:26:18.957Z,77.19
2019-05-25T21:28:50.766Z,77.79
2019-05-25T21:31:27.369Z,77.92
2019-05-25T21:34:04.683Z,77.84
2019-05-25T21:36:48.337Z,77.41
2019-05-25T21:39:26.556Z,77.69
2019-05-25T21:42:00.599Z,77.76
2019-05-25T21:44:36.980Z,78.01
2019-05-25T21:47:08.545Z,77.81
2019-05-25T21:49:41.525Z,78.75
2019-05-25T21:52:14.888Z,78.31
2019-05-25T21:54:46.721Z,78.09
2019-05-25T21:57:19.027Z,78.39
2019-05-25T21:59:50.696Z,78.89
2019-05-25T22:02:22.445Z,78.66
2019-05-25T22:04:54.194Z,78.86
2019-05-25T22:07:26.627Z,79.91
2019-05-25T22:09:58.296Z,79.43
2019-05-25T22:12:30.083Z,79.24
2019-05-25T22:15:01.838Z,80.49
2019-05-25T22:17:34.166Z,80.34
2019-05-25T22:20:11.088Z,80.88
2019-05-25T22:22:43.484Z,81.20
2019-05-25T22:25:16.136Z,80.86
2019-05-25T22:27:47.982Z,82.58
2019-05-25T22:30:22.655Z,83.14
2019-05-25T22:32:54.617Z,83.30
2019-05-25T22:35:26.657Z,82.82
2019-05-25T22:37:58.419Z,83.43
2019-05-25T22:40:30.178Z,83.42
2019-05-25T22:43:01.920Z,83.81
2019-05-25T22:45:33.683Z,84.34
2019-05-25T22:48:05.522Z,84.63
2019-05-25T22:50:37.183Z,84.95
2019-05-25T22:53:08.938Z,85.52
2019-05-25T22:55:40.721Z,86.03
2019-05-25T22:58:12.470Z,86.05
2019-05-25T23:00:44.249Z,85.86
2019-05-25T23:03:16.367Z,86.98
2019-05-25T23:05:48.336Z,86.65
2019-05-25T23:08:20.085Z,86.71
2019-05-25T23:10:51.849Z,86.84
2019-05-25T23:13:23.608Z,87.27
2019-05-25T23:15:55.373Z,87.19
2019-05-25T23:18:28.700Z,87.19
2019-05-25T23:21:00.455Z,87.06
2019-05-25T23:23:32.508Z,87.22
2019-05-25T23:26:04.269Z,87.15
2019-05-25T23:28:37.296Z,87.20
2019-05-25T23:31:09.048Z,87.36
2019-05-25T23:33:41.100Z,87.95
2019-05-25T23:36:12.847Z,88.02
2019-05-25T23:38:45.778Z,87.79
2019-05-25T23:41:17.583Z,88.11
2019-05-25T23:43:49.339Z,88.21
2019-05-25T23:46:22.420Z,88.51
2019-05-25T23:48:54.084Z,88.13
2019-05-25T23:51:27.103Z,87.76
2019-05-25T23:53:58.847Z,87.92
2019-05-25T23:56:30.593Z,87.79
2019-05-25T23:59:02.336Z,88.25
